createdAt,value
2018-09-13T00:00:27.469Z,18.13
2018-09-13T00:02:34.688Z,15.03
2018-09-13T00:04:39.704Z,15.53
2018-09-13T00:06:43.538Z,16.60
2018-09-13T00:08:47.422Z,18.10
2018-09-13T00:10:52.408Z,23.60
2018-09-13T00:12:57.375Z,19.67
2018-09-13T00:15:01.187Z,17.90
2018-09-13T00:17:05.102Z,18.60
2018-09-13T00:19:08.980Z,15.33
2018-09-13T00:21:12.785Z,15.90
2018-09-13T00:23:16.727Z,14.30
2018-09-13T00:25:20.584Z,18.70
2018-09-13T00:27:24.433Z,16.60
2018-09-13T00:29:28.224Z,16.73
2018-09-13T00:31:32.038Z,18.80
2018-09-13T00:33:41.120Z,15.20
2018-09-13T00:35:45.170Z,18.07
2018-09-13T00:37:49.093Z,15.83
2018-09-13T00:39:52.990Z,15.10
2018-09-13T00:41:56.831Z,16.03
2018-09-13T00:44:00.719Z,16.97
2018-09-13T00:46:04.506Z,15.33
2018-09-13T00:48:09.089Z,20.20
2018-09-13T00:50:14.004Z,24.50
2018-09-13T00:52:17.781Z,22.50
2018-09-13T00:54:21.731Z,20.93
2018-09-13T00:56:25.513Z,19.97
2018-09-13T00:58:29.358Z,21.57
2018-09-13T01:00:33.202Z,20.60
2018-09-13T01:02:39.033Z,25.50
2018-09-13T01:04:43.016Z,18.77
2018-09-13T01:06:47.262Z,20.27
2018-09-13T01:08:51.194Z,20.43
2018-09-13T01:10:55.329Z,20.47
2018-09-13T01:12:59.196Z,22.93
2018-09-13T01:15:03.024Z,17.80
2018-09-13T01:17:06.781Z,21.60
2018-09-13T01:19:10.755Z,16.70
2018-09-13T01:21:14.554Z,22.00
2018-09-13T01:23:18.429Z,18.90
2018-09-13T01:25:32.398Z,18.37
2018-09-13T01:27:36.205Z,15.70
2018-09-13T01:29:40.169Z,17.83
2018-09-13T01:31:44.488Z,17.80
2018-09-13T01:33:51.998Z,16.00
2018-09-13T01:35:55.784Z,15.67
2018-09-13T01:37:59.635Z,15.80
2018-09-13T01:40:03.516Z,12.93
2018-09-13T01:42:09.393Z,17.13
2018-09-13T01:44:13.304Z,16.73
2018-09-13T01:46:17.060Z,16.70
2018-09-13T01:48:20.952Z,13.03
2018-09-13T01:50:25.027Z,13.40
2018-09-13T01:52:28.893Z,21.40
2018-09-13T01:54:32.726Z,21.87
2018-09-13T01:56:40.627Z,18.57
2018-09-13T01:58:44.535Z,19.03
2018-09-13T02:00:48.406Z,19.33
2018-09-13T02:02:52.343Z,17.13
2018-09-13T02:04:56.204Z,15.90
2018-09-13T02:07:00.024Z,21.30
2018-09-13T02:09:04.600Z,16.17
2018-09-13T02:11:09.793Z,18.90
2018-09-13T02:13:13.690Z,19.17
2018-09-13T02:15:17.477Z,20.90
2018-09-13T02:17:21.410Z,23.50
2018-09-13T02:19:25.254Z,21.90
2018-09-13T02:21:29.031Z,19.40
2018-09-13T02:23:32.847Z,21.87
2018-09-13T02:25:36.713Z,24.87
2018-09-13T02:27:40.504Z,22.83
2018-09-13T02:29:44.310Z,23.43
2018-09-13T02:31:48.083Z,26.23
2018-09-13T02:33:51.913Z,25.73
2018-09-13T02:35:56.859Z,20.17
2018-09-13T02:38:00.764Z,24.60
2018-09-13T02:40:04.983Z,27.57
2018-09-13T02:42:08.942Z,25.70
2018-09-13T02:44:12.849Z,19.53
2018-09-13T02:46:16.647Z,19.50
2018-09-13T02:48:20.889Z,21.87
2018-09-13T02:50:24.799Z,22.27
2018-09-13T02:52:28.570Z,21.73
2018-09-13T02:54:32.568Z,21.50
2018-09-13T02:56:36.832Z,20.20
2018-09-13T02:58:40.581Z,24.03
2018-09-13T03:00:44.954Z,24.70
2018-09-13T03:02:52.641Z,20.87
2018-09-13T03:04:59.010Z,24.33
2018-09-13T03:07:03.139Z,27.93
2018-09-13T03:09:10.639Z,19.30
2018-09-13T03:11:14.670Z,20.10
2018-09-13T03:13:18.444Z,26.30
2018-09-13T03:15:22.315Z,22.87
2018-09-13T03:17:26.118Z,22.70
2018-09-13T03:19:29.944Z,20.50
2018-09-13T03:21:33.754Z,19.33
2018-09-13T03:23:38.552Z,23.70
2018-09-13T03:25:42.988Z,25.37
2018-09-13T03:27:46.874Z,25.47
2018-09-13T03:29:50.846Z,26.73
2018-09-13T03:31:54.655Z,27.13
2018-09-13T03:33:58.547Z,23.80
2018-09-13T03:36:02.459Z,28.70
2018-09-13T03:38:07.881Z,26.50
2018-09-13T03:40:11.809Z,20.40
2018-09-13T03:42:15.652Z,19.20
2018-09-13T03:44:19.449Z,21.37
2018-09-13T03:46:23.312Z,23.60
2018-09-13T03:48:27.210Z,24.00
2018-09-13T03:50:34.352Z,23.50
2018-09-13T03:52:38.773Z,19.20
2018-09-13T03:54:42.594Z,20.77
2018-09-13T03:56:46.539Z,20.23
2018-09-13T03:58:50.402Z,25.13
2018-09-13T04:00:54.299Z,23.67
2018-09-13T04:02:58.184Z,26.27
2018-09-13T04:05:02.020Z,29.37
2018-09-13T04:07:06.328Z,28.73
2018-09-13T04:09:11.666Z,25.53
2018-09-13T04:11:25.333Z,26.53
2018-09-13T04:13:29.194Z,33.93
2018-09-13T04:15:36.058Z,29.53
2018-09-13T04:17:39.994Z,33.07
2018-09-13T04:19:46.075Z,31.87
2018-09-13T04:21:50.279Z,31.77
2018-09-13T04:23:56.148Z,38.97
2018-09-13T04:26:02.252Z,35.97
2018-09-13T04:28:06.089Z,29.17
2018-09-13T04:30:10.198Z,31.60
2018-09-13T04:32:14.064Z,30.40
2018-09-13T04:34:17.855Z,31.83
2018-09-13T04:36:21.693Z,37.20
2018-09-13T04:38:32.873Z,39.90
2018-09-13T04:40:41.298Z,38.37
2018-09-13T04:42:45.361Z,32.50
2018-09-13T04:44:49.219Z,35.07
2018-09-13T04:46:53.121Z,35.90
2018-09-13T04:48:57.028Z,34.43
2018-09-13T04:51:01.062Z,30.80
2018-09-13T04:53:04.998Z,28.37
2018-09-13T04:55:33.653Z,30.00
2018-09-13T04:57:38.390Z,26.80
2018-09-13T04:59:42.425Z,31.47
2018-09-13T05:01:46.316Z,33.93
2018-09-13T05:03:50.135Z,28.40
2018-09-13T05:05:53.969Z,39.23
2018-09-13T05:07:58.009Z,36.57
2018-09-13T05:10:01.969Z,40.23
2018-09-13T05:12:05.993Z,38.47
2018-09-13T05:14:09.834Z,34.73
2018-09-13T05:16:13.768Z,33.83
2018-09-13T05:18:17.674Z,34.80
2018-09-13T05:20:21.525Z,33.00
2018-09-13T05:22:25.495Z,35.50
2018-09-13T05:24:29.365Z,38.50
2018-09-13T05:26:35.754Z,31.37
2018-09-13T05:28:39.556Z,31.70
2018-09-13T05:30:43.511Z,38.83
2018-09-13T05:32:47.412Z,40.43
2018-09-13T05:34:51.286Z,36.60
2018-09-13T05:36:55.127Z,38.23
2018-09-13T05:38:59.042Z,30.37
2018-09-13T05:41:03.194Z,33.57
2018-09-13T05:43:07.196Z,40.60
2018-09-13T05:45:11.073Z,34.40
2018-09-13T05:47:15.114Z,35.20
2018-09-13T05:49:18.965Z,36.40
2018-09-13T05:51:22.840Z,35.63
2018-09-13T05:53:26.685Z,45.20
2018-09-13T05:55:30.891Z,43.13
2018-09-13T05:57:34.814Z,40.03
2018-09-13T05:59:38.749Z,34.33
2018-09-13T06:01:42.744Z,33.47
2018-09-13T06:03:46.798Z,37.13
2018-09-13T06:05:50.801Z,37.47
2018-09-13T06:07:54.706Z,39.20
2018-09-13T06:09:58.576Z,40.00
2018-09-13T06:12:02.466Z,42.10
2018-09-13T06:14:06.481Z,42.17
2018-09-13T06:16:10.395Z,46.57
2018-09-13T06:18:14.442Z,36.80
2018-09-13T06:20:18.319Z,36.27
2018-09-13T06:22:22.257Z,37.80
2018-09-13T06:24:26.113Z,34.00
2018-09-13T06:26:30.022Z,37.03
2018-09-13T06:28:33.862Z,44.50
2018-09-13T06:30:37.696Z,35.73
2018-09-13T06:32:41.564Z,38.90
2018-09-13T06:34:45.503Z,45.30
2018-09-13T06:36:49.327Z,36.73
2018-09-13T06:38:53.218Z,47.03
2018-09-13T06:40:57.049Z,44.03
2018-09-13T06:43:00.969Z,39.17
2018-09-13T06:45:05.070Z,38.13
2018-09-13T06:47:08.963Z,39.40
2018-09-13T06:49:12.955Z,43.30
2018-09-13T06:51:17.941Z,45.80
2018-09-13T06:53:21.763Z,40.47
2018-09-13T06:55:25.635Z,46.43
2018-09-13T06:57:29.534Z,40.87
2018-09-13T06:59:33.445Z,42.10
2018-09-13T07:01:37.304Z,44.47
2018-09-13T07:03:41.198Z,42.53
2018-09-13T07:05:44.997Z,45.20
2018-09-13T07:07:48.947Z,43.47
2018-09-13T07:09:52.735Z,38.77
2018-09-13T07:11:56.711Z,46.13
2018-09-13T07:14:00.479Z,48.90
2018-09-13T07:16:04.283Z,42.90
2018-09-13T07:18:08.317Z,48.13
2018-09-13T07:20:12.164Z,48.23
2018-09-13T07:22:15.973Z,40.37
2018-09-13T07:24:19.794Z,48.03
2018-09-13T07:26:23.588Z,47.73
2018-09-13T07:28:27.407Z,41.50
2018-09-13T07:30:31.224Z,42.03
2018-09-13T07:32:35.114Z,41.67
2018-09-13T07:34:39.677Z,41.50
2018-09-13T07:36:43.570Z,38.03
2018-09-13T07:38:47.396Z,37.10
2018-09-13T07:40:51.216Z,36.13
2018-09-13T07:42:56.242Z,39.67
2018-09-13T07:45:00.108Z,39.53
2018-09-13T07:47:04.059Z,36.63
2018-09-13T07:49:08.693Z,45.17
2018-09-13T07:51:12.517Z,37.13
2018-09-13T07:53:16.417Z,41.03
2018-09-13T07:55:20.242Z,41.93
2018-09-13T07:57:24.194Z,34.63
2018-09-13T07:59:28.156Z,34.77
2018-09-13T08:01:32.026Z,34.87
2018-09-13T08:03:36.656Z,29.10
2018-09-13T08:05:40.589Z,32.97
2018-09-13T08:07:44.387Z,34.60
2018-09-13T08:09:48.228Z,32.10
2018-09-13T08:11:52.133Z,28.80
2018-09-13T08:13:55.922Z,30.67
2018-09-13T08:15:59.760Z,28.87
2018-09-13T08:18:05.423Z,29.43
2018-09-13T08:20:09.305Z,29.83
2018-09-13T08:22:13.239Z,26.00
2018-09-13T08:24:17.082Z,37.80
2018-09-13T08:26:20.978Z,26.60
2018-09-13T08:28:24.849Z,28.20
2018-09-13T08:30:28.742Z,29.60
2018-09-13T08:32:35.752Z,23.67
2018-09-13T08:34:39.652Z,28.37
2018-09-13T08:36:43.456Z,30.63
2018-09-13T08:38:47.366Z,20.77
2018-09-13T08:40:51.336Z,31.33
2018-09-13T08:42:55.268Z,28.23
2018-09-13T08:44:59.126Z,31.90
2018-09-13T08:47:03.156Z,29.73
2018-09-13T08:49:07.019Z,27.40
2018-09-13T08:51:10.865Z,24.87
2018-09-13T08:53:15.181Z,29.80
2018-09-13T08:55:19.103Z,29.53
2018-09-13T08:57:23.018Z,22.80
2018-09-13T08:59:26.990Z,25.20
2018-09-13T09:01:30.943Z,23.27
2018-09-13T09:03:34.792Z,24.60
2018-09-13T09:05:38.623Z,24.60
2018-09-13T09:07:42.518Z,21.57
2018-09-13T09:09:46.445Z,25.37
2018-09-13T09:11:50.429Z,23.53
2018-09-13T09:13:54.424Z,20.63
2018-09-13T09:15:58.547Z,21.27
2018-09-13T09:18:02.425Z,20.50
2018-09-13T09:20:06.984Z,23.57
2018-09-13T09:22:10.952Z,33.20
2018-09-13T09:24:14.817Z,26.33
2018-09-13T09:26:18.734Z,28.03
2018-09-13T09:28:22.595Z,26.37
2018-09-13T09:30:26.867Z,25.43
2018-09-13T09:32:30.638Z,21.87
2018-09-13T09:34:35.486Z,21.10
2018-09-13T09:36:39.212Z,23.93
2018-09-13T09:38:43.021Z,22.73
2018-09-13T09:40:46.830Z,21.33
2018-09-13T09:42:50.644Z,22.07
2018-09-13T09:44:54.488Z,23.27
2018-09-13T09:46:58.300Z,22.27
2018-09-13T09:49:02.154Z,23.60
2018-09-13T09:51:06.013Z,24.63
2018-09-13T09:53:09.882Z,22.60
2018-09-13T09:55:13.714Z,26.17
2018-09-13T09:57:17.523Z,20.07
2018-09-13T09:59:21.415Z,21.53
2018-09-13T10:01:30.433Z,21.57
2018-09-13T10:03:34.400Z,27.93
2018-09-13T10:05:48.794Z,28.57
2018-09-13T10:07:52.700Z,23.00
2018-09-13T10:09:56.603Z,19.83
2018-09-13T10:12:00.498Z,20.50
2018-09-13T10:14:04.856Z,21.87
2018-09-13T10:16:14.023Z,19.77
2018-09-13T10:18:23.208Z,21.53
2018-09-13T10:20:32.642Z,17.40
2018-09-13T10:22:41.765Z,17.40
2018-09-13T10:24:50.903Z,21.77
2018-09-13T10:27:00.073Z,20.40
2018-09-13T10:29:09.247Z,19.47
2018-09-13T10:31:18.211Z,21.93
2018-09-13T10:33:27.226Z,22.10
2018-09-13T10:35:37.827Z,19.27
2018-09-13T10:37:47.002Z,24.40
2018-09-13T10:39:56.221Z,23.40
2018-09-13T10:42:05.326Z,20.93
2018-09-13T10:44:14.496Z,17.50
2018-09-13T10:46:25.475Z,21.00
2018-09-13T10:48:35.001Z,19.93
2018-09-13T10:50:52.515Z,16.23
2018-09-13T10:53:09.415Z,15.77
2018-09-13T10:55:13.599Z,20.23
2018-09-13T10:57:22.837Z,32.53
2018-09-13T10:59:26.686Z,18.40
2018-09-13T11:01:30.485Z,18.20
2018-09-13T11:03:34.385Z,26.83
2018-09-13T11:05:38.646Z,21.23
2018-09-13T11:07:44.085Z,20.00
2018-09-13T11:09:49.674Z,15.77
2018-09-13T11:11:53.512Z,16.73
2018-09-13T11:14:03.589Z,16.50
2018-09-13T11:16:07.854Z,32.20
2018-09-13T11:18:13.854Z,31.37
2018-09-13T11:20:23.773Z,16.23
2018-09-13T11:22:27.636Z,19.23
2018-09-13T11:24:31.683Z,17.93
2018-09-13T11:26:35.587Z,17.40
2018-09-13T11:28:39.548Z,13.73
2018-09-13T11:30:43.530Z,19.00
2018-09-13T11:32:47.335Z,15.40
2018-09-13T11:34:51.221Z,15.87
2018-09-13T11:36:55.102Z,17.80
2018-09-13T11:38:58.899Z,18.43
2018-09-13T11:41:03.636Z,16.70
2018-09-13T11:43:07.388Z,17.23
2018-09-13T11:45:11.332Z,13.33
2018-09-13T11:47:15.197Z,19.23
2018-09-13T11:49:19.189Z,22.40
2018-09-13T11:51:23.231Z,23.97
2018-09-13T11:53:27.194Z,20.73
2018-09-13T11:55:31.058Z,23.37
2018-09-13T11:57:34.913Z,24.50
2018-09-13T11:59:39.061Z,22.57
2018-09-13T12:01:42.927Z,17.17
2018-09-13T12:03:48.505Z,13.43
2018-09-13T12:05:52.515Z,20.40
2018-09-13T12:07:56.450Z,15.40
2018-09-13T12:10:00.323Z,15.33
2018-09-13T12:12:04.166Z,22.23
2018-09-13T12:14:08.442Z,24.57
2018-09-13T12:16:12.284Z,13.20
2018-09-13T12:18:16.199Z,23.87
2018-09-13T12:20:20.056Z,14.17
2018-09-13T12:22:23.902Z,18.03
2018-09-13T12:24:28.835Z,17.83
2018-09-13T12:26:32.825Z,28.93
2018-09-13T12:28:37.748Z,24.50
2018-09-13T12:30:41.604Z,21.00
2018-09-13T12:32:45.908Z,34.67
2018-09-13T12:34:49.774Z,25.53
2018-09-13T12:36:53.870Z,17.40
2018-09-13T12:38:57.664Z,18.40
2018-09-13T12:41:01.766Z,27.37
2018-09-13T12:43:05.584Z,29.23
2018-09-13T12:45:10.355Z,25.60
2018-09-13T12:47:14.134Z,21.10
2018-09-13T12:49:18.020Z,15.87
2018-09-13T12:51:21.823Z,19.23
2018-09-13T12:53:26.682Z,13.17
2018-09-13T12:55:35.746Z,29.60
2018-09-13T12:57:39.575Z,20.70
2018-09-13T12:59:43.419Z,14.70
2018-09-13T13:01:47.397Z,14.20
2018-09-13T13:03:51.220Z,13.83
2018-09-13T13:05:55.177Z,17.37
2018-09-13T13:07:58.976Z,20.93
2018-09-13T13:10:02.909Z,15.40
2018-09-13T13:12:06.842Z,12.83
2018-09-13T13:14:10.659Z,15.37
2018-09-13T13:16:14.515Z,15.90
2018-09-13T13:18:18.312Z,14.13
2018-09-13T13:20:22.173Z,11.23
2018-09-13T13:22:26.047Z,11.00
2018-09-13T13:24:29.859Z,13.63
2018-09-13T13:26:34.118Z,15.17
2018-09-13T13:28:37.970Z,13.23
2018-09-13T13:30:41.745Z,14.73
2018-09-13T13:32:45.595Z,13.80
2018-09-13T13:34:49.378Z,14.53
2018-09-13T13:36:53.210Z,18.07
2018-09-13T13:38:57.006Z,11.10
2018-09-13T13:41:01.069Z,11.03
2018-09-13T13:43:04.914Z,13.47
2018-09-13T13:45:08.740Z,13.70
2018-09-13T13:47:13.640Z,15.80
2018-09-13T13:49:17.680Z,10.37
2018-09-13T13:51:21.897Z,15.33
2018-09-13T13:53:25.758Z,20.60
2018-09-13T13:55:29.555Z,13.73
2018-09-13T13:57:33.433Z,17.17
2018-09-13T13:59:37.277Z,11.77
2018-09-13T14:01:41.112Z,13.27
2018-09-13T14:03:45.375Z,15.87
2018-09-13T14:05:49.212Z,14.97
2018-09-13T14:07:53.004Z,12.57
2018-09-13T14:09:56.975Z,15.63
2018-09-13T14:12:00.745Z,18.57
2018-09-13T14:14:04.531Z,14.07
2018-09-13T14:16:08.354Z,13.73
2018-09-13T14:18:12.254Z,25.30
2018-09-13T14:20:16.154Z,11.43
2018-09-13T14:22:20.103Z,16.73
2018-09-13T14:24:23.978Z,16.63
2018-09-13T14:26:27.975Z,32.03
2018-09-13T14:28:31.745Z,21.90
2018-09-13T14:30:35.659Z,12.90
2018-09-13T14:32:39.515Z,16.90
2018-09-13T14:34:43.406Z,23.07
2018-09-13T14:36:47.246Z,13.50
2018-09-13T14:38:51.177Z,15.07
2018-09-13T14:40:55.203Z,14.73
2018-09-13T14:42:59.077Z,14.80
2018-09-13T14:45:02.837Z,12.67
2018-09-13T14:47:07.676Z,12.60
2018-09-13T14:49:11.469Z,14.47
2018-09-13T14:51:15.327Z,11.53
2018-09-13T14:53:19.121Z,12.50
2018-09-13T14:55:22.974Z,14.10
2018-09-13T14:57:26.826Z,18.27
2018-09-13T14:59:30.761Z,11.43
2018-09-13T15:01:34.567Z,13.83
2018-09-13T15:03:39.210Z,16.23
2018-09-13T15:05:43.032Z,12.40
2018-09-13T15:07:47.082Z,14.30
2018-09-13T15:09:50.858Z,16.00
2018-09-13T15:11:54.745Z,18.40
2018-09-13T15:13:58.578Z,14.17
2018-09-13T15:16:02.497Z,17.40
2018-09-13T15:18:06.389Z,11.47
2018-09-13T15:20:10.253Z,12.97
2018-09-13T15:22:14.093Z,17.60
2018-09-13T15:24:17.957Z,16.03
2018-09-13T15:26:21.781Z,19.07
2018-09-13T15:28:25.714Z,17.60
2018-09-13T15:30:29.474Z,15.93
2018-09-13T15:32:33.311Z,19.60
2018-09-13T15:34:37.141Z,17.13
2018-09-13T15:36:41.080Z,19.63
2018-09-13T15:38:45.138Z,22.23
2018-09-13T15:40:48.872Z,18.80
2018-09-13T15:42:53.148Z,20.63
2018-09-13T15:44:57.358Z,19.67
2018-09-13T15:47:01.505Z,21.93
2018-09-13T15:49:05.749Z,18.70
2018-09-13T15:51:09.582Z,18.30
2018-09-13T15:53:13.417Z,19.30
2018-09-13T15:55:17.335Z,27.30
2018-09-13T15:57:21.168Z,20.97
2018-09-13T15:59:25.228Z,23.73
2018-09-13T16:01:29.260Z,23.83
2018-09-13T16:03:33.159Z,28.37
2018-09-13T16:05:37.126Z,24.97
2018-09-13T16:07:41.168Z,27.20
2018-09-13T16:09:44.972Z,26.30
2018-09-13T16:11:48.860Z,27.07
2018-09-13T16:13:52.734Z,20.90
2018-09-13T16:15:57.499Z,19.93
2018-09-13T16:18:03.790Z,23.43
2018-09-13T16:20:07.748Z,21.67
2018-09-13T16:22:11.784Z,20.47
2018-09-13T16:24:16.048Z,20.23
2018-09-13T16:26:19.834Z,21.13
2018-09-13T16:28:23.776Z,20.93
2018-09-13T16:30:27.853Z,22.70
2018-09-13T16:32:32.126Z,22.73
2018-09-13T16:34:35.991Z,24.33
2018-09-13T16:36:47.509Z,21.10
2018-09-13T16:38:56.818Z,20.20
2018-09-13T16:41:08.164Z,21.03
2018-09-13T16:43:14.996Z,23.73
2018-09-13T16:45:26.045Z,18.73
2018-09-13T16:47:35.427Z,18.03
2018-09-13T16:49:40.353Z,17.50
2018-09-13T16:51:44.443Z,21.37
2018-09-13T16:53:48.511Z,19.50
2018-09-13T16:56:08.849Z,21.70
2018-09-13T16:58:13.763Z,19.93
2018-09-13T17:00:19.520Z,20.17
2018-09-13T17:02:24.048Z,22.13
2018-09-13T17:04:28.277Z,19.60
2018-09-13T17:06:32.415Z,23.50
2018-09-13T17:08:36.220Z,20.80
2018-09-13T17:10:52.434Z,23.60
2018-09-13T17:12:56.972Z,19.37
2018-09-13T17:15:01.842Z,19.40
2018-09-13T17:17:06.947Z,24.43
2018-09-13T17:19:12.000Z,18.90
2018-09-13T17:21:16.057Z,16.03
2018-09-13T17:23:20.034Z,19.40
2018-09-13T17:25:24.510Z,26.23
2018-09-13T17:27:28.873Z,22.17
2018-09-13T17:29:32.858Z,20.70
2018-09-13T17:31:36.807Z,18.97
2018-09-13T17:33:40.975Z,19.50
2018-09-13T17:35:45.089Z,18.70
2018-09-13T17:37:48.954Z,19.90
2018-09-13T17:39:52.784Z,23.20
2018-09-13T17:41:56.561Z,24.83
2018-09-13T17:44:00.509Z,20.80
2018-09-13T17:46:04.284Z,20.10
2018-09-13T17:48:08.188Z,22.47
2018-09-13T17:50:12.789Z,19.80
2018-09-13T17:52:16.879Z,30.77
2018-09-13T17:54:20.788Z,34.93
2018-09-13T17:56:25.097Z,29.07
2018-09-13T17:58:31.825Z,36.50
2018-09-13T18:00:35.741Z,30.07
2018-09-13T18:02:40.297Z,36.20
2018-09-13T18:04:44.410Z,36.90
2018-09-13T18:06:48.244Z,37.60
2018-09-13T18:08:52.074Z,40.37
2018-09-13T18:10:56.369Z,35.13
2018-09-13T18:13:00.677Z,47.20
2018-09-13T18:15:04.650Z,38.20
2018-09-13T18:17:08.905Z,39.90
2018-09-13T18:19:12.801Z,39.37
2018-09-13T18:21:17.011Z,38.27
2018-09-13T18:23:20.823Z,42.60
2018-09-13T18:25:26.888Z,40.83
2018-09-13T18:27:31.812Z,41.40
2018-09-13T18:29:38.518Z,42.00
2018-09-13T18:31:42.486Z,40.03
2018-09-13T18:33:46.891Z,40.70
2018-09-13T18:35:50.776Z,37.40
2018-09-13T18:37:55.009Z,38.10
2018-09-13T18:42:29.845Z,35.30
2018-09-13T18:44:47.741Z,42.47
2018-09-13T18:46:52.619Z,36.23
2018-09-13T18:49:14.701Z,39.10
2018-09-13T18:51:18.641Z,43.40
2018-09-13T18:53:23.157Z,41.93
2018-09-13T18:55:27.043Z,43.47
2018-09-13T18:57:30.827Z,40.40
2018-09-13T18:59:34.924Z,34.93
2018-09-13T19:01:38.789Z,38.07
2018-09-13T19:03:42.673Z,36.30
2018-09-13T19:05:46.996Z,37.93
2018-09-13T19:07:51.166Z,33.03
2018-09-13T19:09:56.617Z,37.97
2018-09-13T19:12:02.537Z,37.93
2018-09-13T19:14:06.824Z,41.43
2018-09-13T19:16:12.060Z,36.03
2018-09-13T19:18:16.030Z,37.83
2018-09-13T19:20:20.214Z,35.87
2018-09-13T19:22:24.064Z,37.37
2018-09-13T19:24:56.276Z,32.27
2018-09-13T19:27:36.220Z,32.60
2018-09-13T19:30:04.606Z,36.47
2018-09-13T19:32:09.977Z,33.90
2018-09-13T19:34:14.588Z,38.90
2018-09-13T19:36:18.457Z,35.60
2018-09-13T19:38:22.204Z,38.43
2018-09-13T19:40:27.513Z,42.53
2018-09-13T19:42:31.427Z,35.13
2018-09-13T19:44:37.362Z,38.17
2018-09-13T19:46:41.565Z,35.30
2018-09-13T19:48:49.588Z,37.03
2018-09-13T19:50:54.728Z,39.70
2018-09-13T19:52:58.820Z,34.37
2018-09-13T19:55:08.812Z,34.83
2018-09-13T19:57:14.986Z,39.63
2018-09-13T19:59:42.666Z,38.70
2018-09-13T20:01:49.332Z,36.50
2018-09-13T20:03:57.719Z,34.27
2018-09-13T20:06:15.542Z,35.70
2018-09-13T20:08:19.332Z,37.47
2018-09-13T20:10:23.213Z,39.03
2018-09-13T20:12:27.067Z,31.23
2018-09-13T20:14:31.010Z,37.03
2018-09-13T20:16:34.875Z,35.00
2018-09-13T20:18:38.774Z,38.23
2018-09-13T20:20:43.078Z,37.07
2018-09-13T20:22:46.958Z,36.23
2018-09-13T20:24:50.959Z,34.90
2018-09-13T20:26:54.798Z,34.47
2018-09-13T20:29:03.862Z,37.00
2018-09-13T20:31:07.844Z,39.37
2018-09-13T20:33:11.879Z,37.10
2018-09-13T20:35:15.783Z,36.87
2018-09-13T20:37:19.686Z,37.63
2018-09-13T20:39:23.599Z,38.10
2018-09-13T20:41:27.404Z,39.90
2018-09-13T20:43:31.235Z,43.50
2018-09-13T20:45:35.187Z,38.77
2018-09-13T20:47:39.150Z,48.17
2018-09-13T20:49:48.120Z,39.60
2018-09-13T20:51:52.135Z,36.53
2018-09-13T20:53:59.479Z,38.43
2018-09-13T20:56:03.409Z,40.77
2018-09-13T20:58:07.772Z,41.63
2018-09-13T21:00:17.167Z,41.83
2018-09-13T21:02:25.650Z,44.57
2018-09-13T21:04:30.111Z,45.43
2018-09-13T21:06:35.692Z,42.73
2018-09-13T21:08:42.487Z,44.30
2018-09-13T21:10:48.782Z,46.87
2018-09-13T21:12:53.398Z,47.03
2018-09-13T21:14:59.036Z,46.70
2018-09-13T21:17:03.037Z,46.90
2018-09-13T21:19:06.846Z,45.23
2018-09-13T21:21:11.701Z,49.87
2018-09-13T21:23:15.627Z,44.03
2018-09-13T21:25:21.852Z,51.47
2018-09-13T21:27:26.245Z,48.90
2018-09-13T21:29:30.157Z,48.90
2018-09-13T21:31:36.315Z,49.33
2018-09-13T21:33:41.888Z,49.30
2018-09-13T21:35:45.972Z,47.00
2018-09-13T21:37:52.259Z,47.10
2018-09-13T21:40:02.054Z,51.93
2018-09-13T21:42:06.017Z,48.00
2018-09-13T21:44:10.843Z,50.33
2018-09-13T21:46:14.724Z,48.90
2018-09-13T21:48:19.745Z,52.67
2018-09-13T21:50:24.672Z,47.93
2018-09-13T21:52:30.918Z,47.67
2018-09-13T21:54:34.701Z,55.83
2018-09-13T21:56:40.230Z,45.50
2018-09-13T21:58:44.110Z,52.80
2018-09-13T22:00:49.341Z,50.57
2018-09-13T22:02:54.152Z,49.20
2018-09-13T22:05:00.841Z,46.50
2018-09-13T22:07:05.042Z,47.70
2018-09-13T22:09:10.132Z,47.43
2018-09-13T22:11:15.426Z,47.43
2018-09-13T22:13:20.444Z,50.70
2018-09-13T22:15:24.835Z,47.43
2018-09-13T22:17:30.044Z,44.33
2018-09-13T22:19:34.367Z,51.33
2018-09-13T22:21:39.513Z,49.07
2018-09-13T22:23:43.626Z,49.87
2018-09-13T22:25:48.022Z,45.40
2018-09-13T22:27:52.049Z,43.67
2018-09-13T22:29:56.073Z,49.50
2018-09-13T22:32:00.444Z,49.13
2018-09-13T22:34:10.395Z,45.63
2018-09-13T22:36:14.355Z,44.90
2018-09-13T22:38:18.424Z,51.00
2018-09-13T22:40:23.498Z,48.23
2018-09-13T22:42:36.704Z,51.70
2018-09-13T22:44:41.653Z,43.87
2018-09-13T22:46:46.302Z,47.50
2018-09-13T22:48:50.389Z,45.40
2018-09-13T22:50:54.175Z,52.83
2018-09-13T22:52:58.436Z,46.67
2018-09-13T22:55:02.556Z,45.40
2018-09-13T22:57:08.751Z,47.07
2018-09-13T22:59:15.508Z,45.07
2018-09-13T23:01:19.672Z,48.50
2018-09-13T23:03:23.559Z,41.37
2018-09-13T23:05:27.884Z,49.80
2018-09-13T23:07:32.539Z,46.87
2018-09-13T23:09:36.406Z,46.00
2018-09-13T23:11:40.773Z,44.90
2018-09-13T23:13:47.585Z,49.23
2018-09-13T23:15:51.959Z,46.47
2018-09-13T23:17:56.179Z,46.27
2018-09-13T23:20:00.239Z,44.87
2018-09-13T23:22:04.888Z,44.37
2018-09-13T23:24:08.671Z,39.43
2018-09-13T23:26:19.393Z,44.73
2018-09-13T23:28:23.278Z,44.07
2018-09-13T23:30:27.536Z,42.43
2018-09-13T23:32:31.981Z,39.20
2018-09-13T23:34:38.413Z,36.60
2018-09-13T23:36:45.572Z,54.37
2018-09-13T23:38:49.655Z,47.13
2018-09-13T23:40:53.585Z,44.40
2018-09-13T23:42:57.864Z,40.43
2018-09-13T23:45:01.721Z,42.60
2018-09-13T23:47:05.745Z,42.43
2018-09-13T23:49:09.639Z,43.70
2018-09-13T23:51:13.570Z,42.50
2018-09-13T23:53:17.418Z,40.77
2018-09-13T23:55:21.357Z,43.50
2018-09-13T23:57:25.396Z,43.47
2018-09-13T23:59:31.921Z,39.93
